Woodward, Oklahoma
Current Conditions -  °F | °C
As of 11:55 AM on Thursday 23 Oct 2014 (Local Time) from KWWR Reporting Station
Scattered Clouds Scattered Clouds  
Wind Chill: 72°   Ceiling: Unl
Heat Index: 72°   Visibility: 10mi
Dew Point: 59°   Wind: 3mph
Humidity: 64%   Direction: 210°SSW
Pressure: 30.14"   Gusts: NA
Location:  36.43°N, 99.4°W
Report Text: KWWR 231655Z AUTO 21003KT 10SM SCT034 22/15 A3014 RMK AO2
Loading
Personal Weather Stations






























Interactive Weather Map
Tropical Storm Tracking
New forecast layout! Learn more

10-Day Weather Forecast

Advertisements
Track Severe Weather on mobile